Golden Princess — ZCDA9 — position and weather

sailwx.info

Track history (hours):
 
Tides and Currents Weather Stations Pressure Air Temp Water Temp Dewpoint Dewpoint Depression Visibility Wind Speed Wind Dir Waves Ship Positions

Golden Princess

Operator: Princess Cruises

Last reported at 2015-Jul-07 01:32 UTC. Time now 2015-Jul-07 04:37 UTC.
Position N 58°07' W 135°07'.

Length 289.6 m; beam 36 m; draft 8.5 m.

Type: Ship. MMSI: 310344000.

Date/timePositionNaut miles runAvg speedWind from/ knotsBaromVisibWave heightAir tempDewpointWater temp
2015-Jul-07 01:32N 58°07' W 135°07'1919.1
2015-Jul-07 00:34N 58°16' W 135°39'1413.9
2015-Jul-06 23:33N 58°24' W 135°59'8 8.3
2015-Jul-06 22:33N 58°32' W 136°03'1515.3
2015-Jul-06 21:33N 58°45' W 136°19'13 2.5
2015-Jul-06 16:22N 58°52' W 136°40'1619.9
2015-Jul-06 15:32N 58°43' W 136°14'1414.4
2015-Jul-06 14:33N 58°30' W 136°03'1211.5
2015-Jul-06 13:33N 58°19' W 135°55'1312.3
2015-Jul-06 12:32N 58°15' W 135°32'  
2015-Jul-03 16:28N 49°26' W 130°42'6221.4
2015-Jul-03 13:33N 48°29' W 130°04'2221.4
2015-Jul-03 12:33N 48°09' W 129°51'2020.5
2015-Jul-03 11:33N 47°50' W 129°39'2120.5
2015-Jul-03 10:31N 47°31' W 129°27'18220.3
2015-Jul-03 01:33N 44°44' W 127°43'2120.7
2015-Jul-03 00:33N 44°25' W 127°31'2020.4
2015-Jul-02 23:33N 44°06' W 127°20'2120.1
2015-Jul-02 22:32N 43°47' W 127°09'2020.0
2015-Jul-02 21:33N 43°29' W 126°58'4220.5
2015-Jul-02 19:31N 42°51' W 126°35'18220.0
2015-Jul-02 10:27N 40°04' W 124°59'1819.6
2015-Jul-02 09:33N 39°48' W 124°50'1919.4
2015-Jul-02 08:34N 39°30' W 124°40'2019.5
2015-Jul-02 07:33N 39°12' W 124°30'2019.7
2015-Jul-02 06:34N 38°54' W 124°20'2019.5
2015-Jul-02 05:33N 38°37' W 124°08'1918.8
2015-Jul-02 04:33N 38°23' W 123°52'1818.2
2015-Jul-02 03:33N 38°12' W 123°34'1918.7
2015-Jul-02 02:34N 38°03' W 123°13'1919.2
2015-Jul-02 01:34N 37°52' W 122°53'1615.5
2015-Jul-02 00:34N 37°47' W 122°35'9 8.0
2015-Jul-01 23:29N 37°48' W 122°24'0 0.0
2015-Jul-01 22:32N 37°48' W 122°24'0 0.0
2015-Jul-01 21:31N 37°48' W 122°24'0 0.0
2015-Jul-01 20:31N 37°48' W 122°24'0 0.0
2015-Jul-01 19:33N 37°48' W 122°24'0 0.0
2015-Jul-01 18:33N 37°48' W 122°24'0 0.0
2015-Jul-01 17:32N 37°48' W 122°24'0 0.0
2015-Jul-01 16:32N 37°48' W 122°24'0 0.0
2015-Jul-01 15:32N 37°48' W 122°24'0 0.0
2015-Jul-01 14:31N 37°48' W 122°24'0 0.0
2015-Jul-01 13:34N 37°48' W 122°24'3 3.3
2015-Jul-01 12:34N 37°49' W 122°28'1313.0
2015-Jul-01 11:34N 37°46' W 122°44'1313.3
2015-Jul-01 10:33N 37°52' W 122°59'1615.8
2015-Jul-01 09:33N 38°01' W 123°15'1717.3
2015-Jul-01 08:33N 38°12' W 123°33'1817.8
2015-Jul-01 07:33N 38°22' W 123°51'1818.5
2015-Jul-01 06:33N 38°36' W 124°07'1919.2
2015-Jul-01 05:33N 38°53' W 124°19'1918.6
2015-Jul-01 04:33N 39°10' W 124°27'52120.7
2015-Jun-30 03:26N 47°50' W 125°20'1921.1
2015-Jun-30 02:33N 48°08' W 125°16'2120.9
2015-Jun-30 01:33N 48°28' W 125°05'2020.2
2015-Jun-30 00:33N 48°28' W 124°35'2020.1
2015-Jun-29 23:33N 48°20' W 124°07'1717.4
2015-Jun-29 22:33N 48°16' W 123°41'1212.1
2015-Jun-29 21:34N 48°22' W 123°25'3 3.3
2015-Jun-29 20:30N 48°25' W 123°24'0 0.0
2015-Jun-29 19:30N 48°25' W 123°24'0 0.0
2015-Jun-29 18:33N 48°25' W 123°24'0 0.0
2015-Jun-29 17:32N 48°25' W 123°24'0 0.0
2015-Jun-29 16:32N 48°25' W 123°24'0 0.0
2015-Jun-29 15:33N 48°25' W 123°24'0 0.0
2015-Jun-29 14:31N 48°25' W 123°24'0 0.2
2015-Jun-29 13:33N 48°25' W 123°24'9 8.6
2015-Jun-29 12:33N 48°16' W 123°26'1616.2
2015-Jun-29 11:33N 48°13' W 123°50'1717.4
2015-Jun-29 10:33N 48°20' W 124°14'1918.7
2015-Jun-29 09:33N 48°27' W 124°40'1818.3
2015-Jun-29 08:33N 48°29' W 125°08'1818.5
2015-Jun-29 07:33N 48°36' W 125°33'1818.4
2015-Jun-29 06:33N 48°46' W 125°56'1918.7
2015-Jun-29 05:33N 48°58' W 126°19'1918.8
2015-Jun-29 04:33N 49°08' W 126°43'1918.8
2015-Jun-29 03:33N 49°21' W 127°04'1818.4
2015-Jun-29 02:33N 49°33' W 127°26'1919.2
2015-Jun-29 01:33N 49°45' W 127°49'2019.7
2015-Jun-29 00:30N 49°58' W 128°14'  
Track history (hours):
 
Tides and Currents Weather Stations Pressure Air Temp Water Temp Dewpoint Dewpoint Depression Visibility Wind Speed Wind Dir Waves Ship Positions

Golden Princess

Operator: Princess Cruises

Last reported at 2015-Jul-07 01:32 UTC. Time now 2015-Jul-07 04:37 UTC.
Position N 58°07' W 135°07'.

Length 289.6 m; beam 36 m; draft 8.5 m.

Type: Ship. MMSI: 310344000.

Date/timePositionNaut miles runAvg speedWind from/ knotsBaromVisibWave heightAir tempDewpointWater temp
2015-Jul-07 01:32N 58°07' W 135°07'1919.1
2015-Jul-07 00:34N 58°16' W 135°39'1413.9
2015-Jul-06 23:33N 58°24' W 135°59'8 8.3
2015-Jul-06 22:33N 58°32' W 136°03'1515.3
2015-Jul-06 21:33N 58°45' W 136°19'13 2.5
2015-Jul-06 16:22N 58°52' W 136°40'1619.9
2015-Jul-06 15:32N 58°43' W 136°14'1414.4
2015-Jul-06 14:33N 58°30' W 136°03'1211.5
2015-Jul-06 13:33N 58°19' W 135°55'1312.3
2015-Jul-06 12:32N 58°15' W 135°32'  
2015-Jul-03 16:28N 49°26' W 130°42'6221.4
2015-Jul-03 13:33N 48°29' W 130°04'2221.4
2015-Jul-03 12:33N 48°09' W 129°51'2020.5
2015-Jul-03 11:33N 47°50' W 129°39'2120.5
2015-Jul-03 10:31N 47°31' W 129°27'18220.3
2015-Jul-03 01:33N 44°44' W 127°43'2120.7
2015-Jul-03 00:33N 44°25' W 127°31'2020.4
2015-Jul-02 23:33N 44°06' W 127°20'2120.1
2015-Jul-02 22:32N 43°47' W 127°09'2020.0
2015-Jul-02 21:33N 43°29' W 126°58'4220.5
2015-Jul-02 19:31N 42°51' W 126°35'18220.0
2015-Jul-02 10:27N 40°04' W 124°59'1819.6
2015-Jul-02 09:33N 39°48' W 124°50'1919.4
2015-Jul-02 08:34N 39°30' W 124°40'2019.5
2015-Jul-02 07:33N 39°12' W 124°30'2019.7
2015-Jul-02 06:34N 38°54' W 124°20'2019.5
2015-Jul-02 05:33N 38°37' W 124°08'1918.8
2015-Jul-02 04:33N 38°23' W 123°52'1818.2
2015-Jul-02 03:33N 38°12' W 123°34'1918.7
2015-Jul-02 02:34N 38°03' W 123°13'1919.2
2015-Jul-02 01:34N 37°52' W 122°53'1615.5
2015-Jul-02 00:34N 37°47' W 122°35'9 8.0
2015-Jul-01 23:29N 37°48' W 122°24'0 0.0
2015-Jul-01 22:32N 37°48' W 122°24'0 0.0
2015-Jul-01 21:31N 37°48' W 122°24'0 0.0
2015-Jul-01 20:31N 37°48' W 122°24'0 0.0
2015-Jul-01 19:33N 37°48' W 122°24'0 0.0
2015-Jul-01 18:33N 37°48' W 122°24'0 0.0
2015-Jul-01 17:32N 37°48' W 122°24'0 0.0
2015-Jul-01 16:32N 37°48' W 122°24'0 0.0
2015-Jul-01 15:32N 37°48' W 122°24'0 0.0
2015-Jul-01 14:31N 37°48' W 122°24'0 0.0
2015-Jul-01 13:34N 37°48' W 122°24'3 3.3
2015-Jul-01 12:34N 37°49' W 122°28'1313.0
2015-Jul-01 11:34N 37°46' W 122°44'1313.3
2015-Jul-01 10:33N 37°52' W 122°59'1615.8
2015-Jul-01 09:33N 38°01' W 123°15'1717.3
2015-Jul-01 08:33N 38°12' W 123°33'1817.8
2015-Jul-01 07:33N 38°22' W 123°51'1818.5
2015-Jul-01 06:33N 38°36' W 124°07'1919.2
2015-Jul-01 05:33N 38°53' W 124°19'1918.6
2015-Jul-01 04:33N 39°10' W 124°27'52120.7
2015-Jun-30 03:26N 47°50' W 125°20'1921.1
2015-Jun-30 02:33N 48°08' W 125°16'2120.9
2015-Jun-30 01:33N 48°28' W 125°05'2020.2
2015-Jun-30 00:33N 48°28' W 124°35'2020.1
2015-Jun-29 23:33N 48°20' W 124°07'1717.4
2015-Jun-29 22:33N 48°16' W 123°41'1212.1
2015-Jun-29 21:34N 48°22' W 123°25'3 3.3
2015-Jun-29 20:30N 48°25' W 123°24'0 0.0
2015-Jun-29 19:30N 48°25' W 123°24'0 0.0
2015-Jun-29 18:33N 48°25' W 123°24'0 0.0
2015-Jun-29 17:32N 48°25' W 123°24'0 0.0
2015-Jun-29 16:32N 48°25' W 123°24'0 0.0
2015-Jun-29 15:33N 48°25' W 123°24'0 0.0
2015-Jun-29 14:31N 48°25' W 123°24'0 0.2
2015-Jun-29 13:33N 48°25' W 123°24'9 8.6
2015-Jun-29 12:33N 48°16' W 123°26'1616.2
2015-Jun-29 11:33N 48°13' W 123°50'1717.4
2015-Jun-29 10:33N 48°20' W 124°14'1918.7
2015-Jun-29 09:33N 48°27' W 124°40'1818.3
2015-Jun-29 08:33N 48°29' W 125°08'1818.5
2015-Jun-29 07:33N 48°36' W 125°33'1818.4
2015-Jun-29 06:33N 48°46' W 125°56'1918.7
2015-Jun-29 05:33N 48°58' W 126°19'1918.8
2015-Jun-29 04:33N 49°08' W 126°43'1918.8
2015-Jun-29 03:33N 49°21' W 127°04'1818.4
2015-Jun-29 02:33N 49°33' W 127°26'1919.2
2015-Jun-29 01:33N 49°45' W 127°49'2019.7
2015-Jun-29 00:30N 49°58' W 128°14'  

Dump ship's entire track history